createdAt,value
2022-11-13T00:00:37.740Z,47.55
2022-11-13T00:03:04.165Z,46.10
2022-11-13T00:05:30.555Z,48.15
2022-11-13T00:07:56.948Z,48.33
2022-11-13T00:10:23.501Z,46.75
2022-11-13T00:12:49.939Z,47.70
2022-11-13T00:15:16.555Z,45.67
2022-11-13T00:17:43.045Z,47.15
2022-11-13T00:20:09.700Z,46.78
2022-11-13T00:22:36.198Z,47.55
2022-11-13T00:25:02.682Z,46.33
2022-11-13T00:27:32.376Z,45.58
2022-11-13T00:29:58.808Z,48.75
2022-11-13T00:32:26.551Z,46.42
2022-11-13T00:34:54.206Z,47.83
2022-11-13T00:37:21.366Z,47.78
2022-11-13T00:39:47.765Z,46.92
2022-11-13T00:42:14.202Z,47.35
2022-11-13T00:44:40.838Z,47.17
2022-11-13T00:47:07.243Z,47.75
2022-11-13T00:49:33.662Z,46.70
2022-11-13T00:52:00.244Z,47.53
2022-11-13T00:54:26.732Z,47.80
2022-11-13T00:56:53.227Z,56.33
2022-11-13T00:59:19.858Z,49.92
2022-11-13T01:01:46.320Z,48.53
2022-11-13T01:04:12.836Z,48.55
2022-11-13T01:06:39.415Z,48.70
2022-11-13T01:09:06.384Z,48.20
2022-11-13T01:11:32.855Z,50.20
2022-11-13T01:13:59.353Z,47.83
2022-11-13T01:16:29.428Z,48.25
2022-11-13T01:18:56.756Z,47.65
2022-11-13T01:21:26.551Z,47.28
2022-11-13T01:23:54.742Z,47.60
2022-11-13T01:26:22.670Z,47.70
2022-11-13T01:28:49.922Z,46.20
2022-11-13T01:31:19.168Z,46.15
2022-11-13T01:33:46.521Z,48.20
2022-11-13T01:36:16.431Z,46.80
2022-11-13T01:38:42.944Z,46.90
2022-11-13T01:41:23.069Z,46.60
2022-11-13T01:43:50.891Z,46.72
2022-11-13T01:46:19.061Z,47.60
2022-11-13T01:48:50.131Z,46.53
2022-11-13T01:51:27.893Z,45.35
2022-11-13T01:53:57.507Z,45.67
2022-11-13T01:56:24.041Z,47.30
2022-11-13T01:58:59.183Z,47.83
2022-11-13T02:01:26.066Z,45.83
2022-11-13T02:03:52.573Z,46.22
2022-11-13T02:06:20.172Z,47.40
2022-11-13T02:08:47.230Z,46.25
2022-11-13T02:11:13.832Z,45.45
2022-11-13T02:13:40.260Z,45.92
2022-11-13T02:16:09.434Z,45.70
2022-11-13T02:18:38.096Z,46.83
2022-11-13T02:21:16.683Z,47.15
2022-11-13T02:23:46.451Z,46.35
2022-11-13T02:26:13.447Z,47.65
2022-11-13T02:28:39.893Z,48.20
2022-11-13T02:31:11.254Z,45.42
2022-11-13T02:33:38.140Z,48.13
2022-11-13T02:36:06.032Z,48.63
2022-11-13T02:38:34.977Z,48.47
2022-11-13T02:41:01.854Z,47.38
2022-11-13T02:43:28.311Z,47.63
2022-11-13T02:45:55.086Z,47.92
2022-11-13T02:48:21.547Z,46.83
2022-11-13T02:50:47.965Z,47.20
2022-11-13T02:53:14.421Z,45.45
2022-11-13T02:55:40.939Z,48.90
2022-11-13T02:58:07.405Z,47.85
2022-11-13T03:00:33.920Z,46.70
2022-11-13T03:03:00.452Z,47.15
2022-11-13T03:05:26.893Z,46.53
2022-11-13T03:07:53.312Z,46.53
2022-11-13T03:10:19.870Z,45.78
2022-11-13T03:12:46.367Z,46.17
2022-11-13T03:15:12.785Z,47.03
2022-11-13T03:17:39.237Z,47.10
2022-11-13T03:20:06.221Z,45.92
2022-11-13T03:22:32.635Z,47.33
2022-11-13T03:24:59.074Z,47.95
2022-11-13T03:27:25.785Z,50.35
2022-11-13T03:29:52.331Z,50.25
2022-11-13T03:32:18.939Z,49.65
2022-11-13T03:34:45.350Z,50.72
2022-11-13T03:37:11.918Z,52.47
2022-11-13T03:39:38.364Z,50.85
2022-11-13T03:42:04.859Z,48.75
2022-11-13T03:44:31.282Z,50.50
2022-11-13T03:46:57.893Z,51.55
2022-11-13T03:49:24.346Z,49.30
2022-11-13T03:51:51.024Z,49.88
2022-11-13T03:54:17.560Z,50.22
2022-11-13T03:56:43.975Z,50.20
2022-11-13T03:59:10.534Z,49.55
2022-11-13T04:01:36.991Z,49.42
2022-11-13T04:04:03.531Z,50.78
2022-11-13T04:06:29.977Z,49.72
2022-11-13T04:08:57.458Z,48.45
2022-11-13T04:11:23.897Z,49.75
2022-11-13T04:13:50.288Z,50.22
2022-11-13T04:16:16.732Z,50.50
2022-11-13T04:18:43.144Z,52.92
2022-11-13T04:21:09.762Z,52.90
2022-11-13T04:23:36.192Z,52.92
2022-11-13T04:26:02.649Z,50.80
2022-11-13T04:28:29.337Z,53.42
2022-11-13T04:30:56.644Z,51.63
2022-11-13T04:33:23.117Z,50.42
2022-11-13T04:35:49.818Z,50.65
2022-11-13T04:38:16.330Z,50.13
2022-11-13T04:40:42.816Z,49.72
2022-11-13T04:43:09.366Z,49.83
2022-11-13T04:45:36.955Z,49.92
2022-11-13T04:48:03.983Z,49.25
2022-11-13T04:50:30.533Z,50.88
2022-11-13T04:52:56.908Z,49.63
2022-11-13T04:55:23.323Z,48.88
2022-11-13T04:57:51.423Z,49.47
2022-11-13T05:00:18.247Z,50.80
2022-11-13T05:02:44.710Z,50.90
2022-11-13T05:05:11.141Z,49.70
2022-11-13T05:07:37.808Z,49.28
2022-11-13T05:10:04.831Z,49.92
2022-11-13T05:12:31.245Z,50.60
2022-11-13T05:14:57.647Z,50.13
2022-11-13T05:17:24.122Z,49.55
2022-11-13T05:19:51.066Z,48.45
2022-11-13T05:22:17.522Z,50.58
2022-11-13T05:24:43.946Z,49.08
2022-11-13T05:27:15.813Z,48.92
2022-11-13T05:29:43.714Z,49.88
2022-11-13T05:32:10.218Z,50.80
2022-11-13T05:34:36.670Z,50.28
2022-11-13T05:37:03.133Z,48.72
2022-11-13T05:39:29.513Z,48.50
2022-11-13T05:41:56.052Z,49.92
2022-11-13T05:44:22.471Z,51.33
2022-11-13T05:46:48.878Z,49.47
2022-11-13T05:49:15.523Z,51.60
2022-11-13T05:51:41.959Z,50.55
2022-11-13T05:54:08.712Z,49.92
2022-11-13T05:56:36.377Z,49.75
2022-11-13T05:59:05.046Z,50.65
2022-11-13T06:01:37.635Z,50.10
2022-11-13T06:04:05.922Z,49.83
2022-11-13T06:06:32.708Z,49.58
2022-11-13T06:09:01.591Z,51.03
2022-11-13T06:11:30.085Z,52.35
2022-11-13T06:13:57.945Z,52.80
2022-11-13T06:16:30.254Z,52.35
2022-11-13T06:18:59.004Z,51.95
2022-11-13T06:21:28.631Z,53.72
2022-11-13T06:23:56.305Z,51.80
2022-11-13T06:26:26.119Z,53.20
2022-11-13T06:28:53.289Z,53.00
2022-11-13T06:31:25.010Z,53.08
2022-11-13T06:33:51.995Z,51.10
2022-11-13T06:36:21.562Z,51.10
2022-11-13T06:38:49.008Z,51.42
2022-11-13T06:41:18.024Z,51.40
2022-11-13T06:43:45.059Z,51.83
2022-11-13T06:46:20.199Z,52.22
2022-11-13T06:48:47.451Z,54.17
2022-11-13T06:51:19.958Z,52.42
2022-11-13T06:53:47.410Z,53.60
2022-11-13T06:56:15.065Z,55.13
2022-11-13T06:58:41.888Z,55.20
2022-11-13T07:01:22.550Z,52.80
2022-11-13T07:03:49.171Z,53.10
2022-11-13T07:06:21.237Z,55.92
2022-11-13T07:08:48.403Z,53.90
2022-11-13T07:11:20.797Z,54.25
2022-11-13T07:13:47.864Z,52.35
2022-11-13T07:16:17.720Z,52.25
2022-11-13T07:18:49.479Z,53.90
2022-11-13T07:21:15.995Z,54.63
2022-11-13T07:23:43.393Z,54.90
2022-11-13T07:26:13.141Z,55.70
2022-11-13T07:28:39.823Z,54.65
2022-11-13T07:31:07.299Z,55.40
2022-11-13T07:33:33.945Z,55.08
2022-11-13T07:36:00.537Z,54.42
2022-11-13T07:38:27.271Z,53.63
2022-11-13T07:40:54.416Z,53.72
2022-11-13T07:43:21.081Z,54.88
2022-11-13T07:45:47.602Z,53.65
2022-11-13T07:48:14.134Z,54.55
2022-11-13T07:50:40.767Z,57.30
2022-11-13T07:53:08.688Z,56.58
2022-11-13T07:55:36.004Z,54.90
2022-11-13T07:58:03.277Z,59.65
2022-11-13T08:00:31.335Z,59.92
2022-11-13T08:02:57.873Z,58.08
2022-11-13T08:05:24.430Z,58.83
2022-11-13T08:07:52.287Z,58.38
2022-11-13T08:10:20.151Z,57.00
2022-11-13T08:12:47.173Z,58.05
2022-11-13T08:15:14.497Z,57.45
2022-11-13T08:17:41.060Z,58.63
2022-11-13T08:20:08.987Z,57.63
2022-11-13T08:22:35.680Z,57.47
2022-11-13T08:25:02.215Z,64.00
2022-11-13T08:27:28.710Z,63.92
2022-11-13T08:29:55.256Z,62.50
2022-11-13T08:32:22.519Z,62.17
2022-11-13T08:34:49.254Z,64.57
2022-11-13T08:37:16.028Z,60.25
2022-11-13T08:39:42.570Z,62.25
2022-11-13T08:42:09.057Z,62.75
2022-11-13T08:44:35.673Z,61.90
2022-11-13T08:47:02.135Z,60.42
2022-11-13T08:49:28.576Z,62.80
2022-11-13T08:51:55.000Z,62.42
2022-11-13T08:54:21.429Z,61.65
2022-11-13T08:56:53.017Z,65.43
2022-11-13T08:59:23.658Z,62.58
2022-11-13T09:01:50.934Z,64.97
2022-11-13T09:04:17.363Z,62.50
2022-11-13T09:06:43.894Z,61.58
2022-11-13T09:09:10.433Z,61.88
2022-11-13T09:11:36.884Z,61.58
2022-11-13T09:14:03.328Z,61.53
2022-11-13T09:16:29.786Z,63.00
2022-11-13T09:18:56.231Z,66.15
2022-11-13T09:21:22.662Z,61.85
2022-11-13T09:23:49.244Z,62.95
2022-11-13T09:26:15.780Z,60.20
2022-11-13T09:28:42.357Z,63.33
2022-11-13T09:31:08.918Z,62.92
2022-11-13T09:33:36.061Z,64.25
2022-11-13T09:36:02.973Z,62.08
2022-11-13T09:38:32.172Z,60.42
2022-11-13T09:41:08.328Z,62.53
2022-11-13T09:43:56.706Z,61.00
2022-11-13T09:46:44.901Z,60.33
2022-11-13T09:49:11.335Z,63.40
2022-11-13T09:51:39.302Z,61.08
2022-11-13T09:54:15.465Z,60.05
2022-11-13T09:57:09.768Z,66.57
2022-11-13T10:00:13.740Z,60.65
2022-11-13T10:03:15.696Z,58.33
2022-11-13T10:05:59.196Z,58.25
2022-11-13T10:09:01.427Z,57.75
2022-11-13T10:11:41.863Z,60.00
2022-11-13T10:14:16.833Z,57.22
2022-11-13T10:16:54.731Z,59.15
2022-11-13T10:19:31.186Z,55.10
2022-11-13T10:22:36.299Z,56.30
2022-11-13T10:25:16.569Z,53.13
2022-11-13T10:30:16.110Z,52.15
2022-11-13T10:32:43.516Z,50.55
2022-11-13T10:35:38.945Z,48.55
2022-11-13T10:38:11.291Z,48.50
2022-11-13T10:40:40.289Z,48.65
2022-11-13T10:43:15.333Z,49.08
2022-11-13T10:45:53.372Z,46.85
2022-11-13T10:48:29.594Z,44.70
2022-11-13T10:51:00.787Z,49.05
2022-11-13T10:53:38.111Z,45.85
2022-11-13T10:56:25.092Z,44.53
2022-11-13T10:59:25.343Z,42.00
2022-11-13T11:01:51.897Z,42.25
2022-11-13T11:04:24.136Z,41.05
2022-11-13T11:07:19.526Z,40.13
2022-11-13T11:09:39.050Z,39.47
2022-11-13T11:12:18.974Z,38.53
2022-11-13T11:14:59.661Z,39.42
2022-11-13T11:17:31.461Z,36.55
2022-11-13T11:20:21.779Z,39.15
2022-11-13T11:25:31.849Z,37.35
2022-11-13T11:28:27.282Z,36.72
2022-11-13T11:31:02.207Z,36.65
2022-11-13T11:33:52.466Z,37.28
2022-11-13T11:39:00.513Z,32.13
2022-11-13T11:41:36.418Z,33.83
2022-11-13T11:44:13.878Z,36.05
2022-11-13T11:46:45.505Z,36.25
2022-11-13T11:49:13.212Z,34.10
2022-11-13T11:51:57.756Z,37.35
2022-11-13T11:54:40.958Z,36.50
2022-11-13T11:57:31.793Z,32.92
2022-11-13T12:00:05.063Z,36.83
2022-11-13T12:03:06.075Z,33.03
2022-11-13T12:05:54.548Z,34.38
2022-11-13T12:08:20.967Z,35.03
2022-11-13T12:10:58.420Z,33.70
2022-11-13T12:13:43.673Z,32.88
2022-11-13T12:16:25.709Z,32.78
2022-11-13T12:18:58.661Z,32.88
2022-11-13T12:21:50.386Z,30.02
2022-11-13T12:24:25.476Z,31.45
2022-11-13T12:27:00.900Z,29.27
2022-11-13T12:29:45.678Z,28.23
2022-11-13T12:32:28.695Z,28.70
2022-11-13T12:35:03.082Z,29.08
2022-11-13T12:37:35.828Z,28.40
2022-11-13T12:40:12.251Z,29.40
2022-11-13T12:42:50.969Z,25.85
2022-11-13T12:45:31.905Z,26.58
2022-11-13T12:48:28.387Z,27.17
2022-11-13T12:51:00.814Z,25.70
2022-11-13T12:53:30.497Z,27.35
2022-11-13T12:56:00.600Z,24.90
2022-11-13T12:58:32.670Z,26.63
2022-11-13T13:01:13.417Z,26.95
2022-11-13T13:04:04.199Z,24.92
2022-11-13T13:06:54.626Z,23.75
2022-11-13T13:09:36.275Z,25.17
2022-11-13T13:12:27.728Z,24.35
2022-11-13T13:14:57.125Z,26.30
2022-11-13T13:17:24.129Z,25.23
2022-11-13T13:20:04.075Z,23.90
2022-11-13T13:22:36.009Z,22.40
2022-11-13T13:25:10.600Z,22.52
2022-11-13T13:27:39.779Z,23.45
2022-11-13T13:30:20.125Z,21.70
2022-11-13T13:32:58.856Z,22.13
2022-11-13T13:35:37.161Z,21.55
2022-11-13T13:38:35.564Z,22.52
2022-11-13T13:41:10.394Z,23.35
2022-11-13T13:43:57.069Z,22.90
2022-11-13T13:46:28.114Z,23.58
2022-11-13T13:49:01.701Z,23.73
2022-11-13T13:51:30.980Z,23.48
2022-11-13T13:54:00.294Z,22.58
2022-11-13T13:56:26.992Z,22.10
2022-11-13T13:58:54.535Z,24.42
2022-11-13T14:01:32.501Z,23.80
2022-11-13T14:04:20.524Z,22.40
2022-11-13T14:06:55.865Z,23.23
2022-11-13T14:09:24.693Z,22.10
2022-11-13T14:12:06.225Z,22.30
2022-11-13T14:14:39.181Z,23.10
2022-11-13T14:17:06.876Z,23.52
2022-11-13T14:19:33.289Z,23.35
2022-11-13T14:22:02.587Z,23.58
2022-11-13T14:24:50.248Z,22.73
2022-11-13T14:27:24.471Z,22.25
2022-11-13T14:29:58.600Z,24.67
2022-11-13T14:32:29.319Z,23.80
2022-11-13T14:35:02.419Z,24.10
2022-11-13T14:37:36.569Z,25.75
2022-11-13T14:40:22.706Z,23.45
2022-11-13T14:42:57.973Z,25.33
2022-11-13T14:45:30.054Z,24.42
2022-11-13T14:48:18.466Z,27.05
2022-11-13T14:50:57.552Z,26.95
2022-11-13T14:53:36.284Z,28.60
2022-11-13T14:56:12.316Z,26.02
2022-11-13T14:58:47.126Z,30.40
2022-11-13T15:01:24.834Z,30.95
2022-11-13T15:03:52.437Z,27.92
2022-11-13T15:06:20.208Z,30.30
2022-11-13T15:08:47.862Z,30.45
2022-11-13T15:11:19.361Z,29.23
2022-11-13T15:13:46.287Z,33.83
2022-11-13T15:16:19.275Z,32.15
2022-11-13T15:19:16.712Z,32.63
2022-11-13T15:21:51.128Z,34.78
2022-11-13T15:24:30.644Z,34.92
2022-11-13T15:26:57.050Z,37.38
2022-11-13T15:29:23.441Z,34.38
2022-11-13T15:31:50.106Z,35.85
2022-11-13T15:34:16.666Z,36.70
2022-11-13T15:36:43.489Z,36.72
2022-11-13T15:39:20.955Z,36.47
2022-11-13T15:41:49.923Z,33.83
2022-11-13T15:44:16.512Z,34.08
2022-11-13T15:46:43.029Z,31.10
2022-11-13T15:49:09.547Z,27.98
2022-11-13T15:51:48.254Z,26.05
2022-11-13T15:54:29.567Z,26.77
2022-11-13T15:56:56.134Z,24.17
2022-11-13T15:59:22.605Z,24.85
2022-11-13T16:01:51.799Z,24.02
2022-11-13T16:04:22.324Z,24.85
2022-11-13T16:06:48.870Z,20.33
2022-11-13T16:09:15.742Z,19.27
2022-11-13T16:11:42.648Z,18.50
2022-11-13T16:14:09.283Z,18.55
2022-11-13T16:16:38.746Z,18.60
2022-11-13T16:19:12.720Z,17.97
2022-11-13T16:21:39.466Z,18.10
2022-11-13T16:24:06.296Z,17.15
2022-11-13T16:26:32.894Z,15.90
2022-11-13T16:29:13.283Z,16.83
2022-11-13T16:31:40.441Z,15.77
2022-11-13T16:34:06.908Z,15.32
2022-11-13T16:36:33.357Z,15.88
2022-11-13T16:38:59.843Z,16.50
2022-11-13T16:41:26.630Z,17.13
2022-11-13T16:43:53.058Z,15.35
2022-11-13T16:46:26.061Z,14.80
2022-11-13T16:48:53.359Z,15.98
2022-11-13T16:51:20.013Z,15.43
2022-11-13T16:53:46.439Z,15.73
2022-11-13T16:56:15.614Z,15.48
2022-11-13T16:58:42.669Z,15.18
2022-11-13T17:01:15.519Z,15.05
2022-11-13T17:03:42.919Z,14.77
2022-11-13T17:06:30.245Z,14.35
2022-11-13T17:08:59.152Z,14.68
2022-11-13T17:11:28.122Z,15.13
2022-11-13T17:14:03.827Z,14.68
2022-11-13T17:16:31.424Z,14.52
2022-11-13T17:18:59.353Z,14.60
2022-11-13T17:21:27.930Z,14.77
2022-11-13T17:23:59.392Z,16.33
2022-11-13T17:26:26.563Z,15.32
2022-11-13T17:28:53.540Z,14.73
2022-11-13T17:31:20.704Z,14.57
2022-11-13T17:33:47.687Z,15.73
2022-11-13T17:36:14.211Z,15.27
2022-11-13T17:38:40.900Z,16.13
2022-11-13T17:41:12.599Z,13.98
2022-11-13T17:43:40.652Z,14.88
2022-11-13T17:46:10.267Z,14.48
2022-11-13T17:48:37.312Z,15.48
2022-11-13T17:51:06.791Z,14.63
2022-11-13T17:53:33.802Z,14.27
2022-11-13T17:56:02.586Z,14.63
2022-11-13T17:58:29.675Z,14.50
2022-11-13T18:01:12.760Z,14.85
2022-11-13T18:03:39.381Z,13.75
2022-11-13T18:06:08.064Z,14.85
2022-11-13T18:08:35.021Z,15.02
2022-11-13T18:11:16.039Z,14.35
2022-11-13T18:13:43.832Z,14.98
2022-11-13T18:16:18.943Z,14.52
2022-11-13T18:18:55.417Z,14.38
2022-11-13T18:21:30.542Z,14.20
2022-11-13T18:24:06.167Z,14.68
2022-11-13T18:26:33.653Z,14.48
2022-11-13T18:29:01.194Z,14.15
2022-11-13T18:31:28.462Z,14.23
2022-11-13T18:33:56.175Z,13.93
2022-11-13T18:36:22.623Z,14.43
2022-11-13T18:38:49.156Z,13.93
2022-11-13T18:41:17.801Z,14.85
2022-11-13T18:43:46.180Z,13.15
2022-11-13T18:46:14.475Z,18.15
2022-11-13T18:48:43.253Z,14.30
2022-11-13T18:51:15.959Z,15.35
2022-11-13T18:53:48.201Z,16.00
2022-11-13T18:56:17.911Z,16.15
2022-11-13T18:58:47.546Z,15.60
2022-11-13T19:01:24.716Z,14.45
2022-11-13T19:04:16.603Z,15.35
2022-11-13T19:06:39.674Z,16.30
2022-11-13T19:09:11.474Z,15.65
2022-11-13T19:11:37.892Z,15.10
2022-11-13T19:14:05.748Z,14.85
2022-11-13T19:16:35.613Z,16.13
2022-11-13T19:19:06.912Z,16.13
2022-11-13T19:21:38.948Z,15.23
2022-11-13T19:24:06.056Z,16.88
2022-11-13T19:26:32.806Z,18.10
2022-11-13T19:28:59.205Z,18.25
2022-11-13T19:31:27.609Z,17.60
2022-11-13T19:34:01.896Z,17.52
2022-11-13T19:36:30.823Z,19.80
2022-11-13T19:38:57.918Z,18.27
2022-11-13T19:41:25.791Z,18.77
2022-11-13T19:43:52.343Z,19.80
2022-11-13T19:46:20.153Z,22.05
2022-11-13T19:48:48.194Z,21.92
2022-11-13T19:51:20.421Z,20.83
2022-11-13T19:53:47.303Z,21.30
2022-11-13T19:56:16.027Z,21.50
2022-11-13T19:58:44.257Z,21.80
2022-11-13T20:01:12.674Z,22.48
2022-11-13T20:03:39.323Z,22.17
2022-11-13T20:06:06.823Z,21.77
2022-11-13T20:08:35.255Z,24.58
2022-11-13T20:11:07.081Z,22.13
2022-11-13T20:13:36.380Z,23.13
2022-11-13T20:16:04.962Z,25.27
2022-11-13T20:18:31.883Z,27.25
2022-11-13T20:20:59.070Z,28.10
2022-11-13T20:23:26.530Z,28.88
2022-11-13T20:26:00.880Z,28.45
2022-11-13T20:28:29.206Z,30.55
2022-11-13T20:31:17.623Z,31.67
2022-11-13T20:33:44.115Z,30.35
2022-11-13T20:36:10.654Z,32.13
2022-11-13T20:38:37.444Z,32.70
2022-11-13T20:41:05.445Z,32.55
2022-11-13T20:43:31.957Z,31.90
2022-11-13T20:46:10.451Z,33.88
2022-11-13T20:48:37.609Z,32.38
2022-11-13T20:51:11.829Z,34.92
2022-11-13T20:53:38.342Z,33.20
2022-11-13T20:56:05.484Z,35.88
2022-11-13T20:58:32.276Z,34.40
2022-11-13T21:01:02.663Z,34.53
2022-11-13T21:05:55.353Z,31.30
2022-11-13T21:08:22.115Z,33.85
2022-11-13T21:10:48.532Z,35.92
2022-11-13T21:13:16.189Z,35.25
2022-11-13T21:15:42.715Z,34.28
2022-11-13T21:18:09.343Z,34.13
2022-11-13T21:20:36.809Z,33.22
2022-11-13T21:23:03.861Z,35.35
2022-11-13T21:25:30.706Z,34.40
2022-11-13T21:27:57.166Z,33.33
2022-11-13T21:30:23.943Z,33.13
2022-11-13T21:32:50.648Z,34.17
2022-11-13T21:35:22.319Z,34.95
2022-11-13T21:37:49.225Z,32.97
2022-11-13T21:40:15.789Z,35.33
2022-11-13T21:42:42.568Z,37.53
2022-11-13T21:45:09.645Z,36.15
2022-11-13T21:47:39.117Z,37.45
2022-11-13T21:50:06.100Z,35.42
2022-11-13T21:52:32.858Z,35.05
2022-11-13T21:54:59.315Z,34.92
2022-11-13T21:57:27.038Z,36.70
2022-11-13T21:59:53.523Z,38.50
2022-11-13T22:02:20.195Z,35.35
2022-11-13T22:04:46.623Z,35.17
2022-11-13T22:07:14.113Z,34.47
2022-11-13T22:09:40.692Z,35.47
2022-11-13T22:12:07.169Z,35.78
2022-11-13T22:14:33.560Z,34.05
2022-11-13T22:17:00.040Z,36.63
2022-11-13T22:19:29.205Z,35.92
2022-11-13T22:21:57.635Z,36.75
2022-11-13T22:24:24.111Z,35.50
2022-11-13T22:26:50.774Z,38.78
2022-11-13T22:29:17.249Z,38.22
2022-11-13T22:31:44.868Z,37.50
2022-11-13T22:34:11.580Z,38.88
2022-11-13T22:36:38.048Z,37.97
2022-11-13T22:39:05.049Z,37.53
2022-11-13T22:41:33.376Z,38.92
2022-11-13T22:44:08.107Z,37.42
2022-11-13T22:46:36.177Z,37.17
2022-11-13T22:49:05.083Z,38.25
2022-11-13T22:51:35.045Z,40.42
2022-11-13T22:54:03.618Z,37.83
2022-11-13T22:56:31.873Z,36.65
2022-11-13T22:59:00.738Z,35.53
2022-11-13T23:01:29.525Z,37.97
2022-11-13T23:03:57.868Z,39.15
2022-11-13T23:06:26.950Z,39.13
2022-11-13T23:08:54.202Z,38.05
2022-11-13T23:11:27.055Z,37.95
2022-11-13T23:13:56.543Z,37.90
2022-11-13T23:16:24.483Z,38.83
2022-11-13T23:18:53.430Z,38.35
2022-11-13T23:21:21.059Z,36.75
2022-11-13T23:23:47.871Z,38.45
2022-11-13T23:26:15.804Z,38.97
2022-11-13T23:28:42.436Z,38.58
2022-11-13T23:31:09.395Z,39.33
2022-11-13T23:33:39.201Z,38.15
2022-11-13T23:36:10.364Z,40.67
2022-11-13T23:38:36.824Z,40.05
2022-11-13T23:41:03.670Z,39.45
2022-11-13T23:43:54.371Z,39.80
2022-11-13T23:46:17.508Z,39.00
2022-11-13T23:48:44.024Z,38.15
2022-11-13T23:51:10.474Z,38.20
2022-11-13T23:53:37.029Z,38.78
2022-11-13T23:56:03.854Z,40.75
2022-11-13T23:58:32.349Z,41.55
